< < Back
Terminal Aerodrome Forecast


Current Version              Previous Versions:   1  2  3  4  5  6  7  8  9  

Terminal Aerodrome Forecast

417
FTUS42 KTAE 240500
TAFDHN
TAF
KDHN 240533Z 2406/2506 20008KT 6SM SHRA BR OVC004
     FM241400 25010KT P6SM BKN025
     FM241800 28010KT P6SM SCT060 BKN150=

Latest METAR

537
SAUS70 KWBC 240900 RRP
MTRDHN
METAR KDHN 240853Z AUTO 19005KT 10SM BKN006 OVC013 18/18 A2983 RMK AO2
SLP096 60001 T01830178 55003


USA.gov is the U.S. government's official web portal to all federal, state and local government web resources and services.